Time;durP1;ratioP1;P1;durP2;ratioP2;P2;SDS_P1;SDS_P2;PMS_P1;PMS_P2;Temp;Humidity;BMP_temperature;BMP_pressure;BME280_temperature;BME280_humidity;BME280_pressure;Samples;Min_cycle;Max_cycle;Signal;HPM_P1;HPM_P2
2024/01/10 00:02:12;;;;;;;75.15;28.12;;;;;;;-9.14;64.72;102064.63;1676495;85;27365;-47
2024/01/10 00:04:39;;;;;;;76.72;27.07;;;;;;;-9.16;64.84;102056.07;1676480;85;25461;-47
2024/01/10 00:07:05;;;;;;;78.85;38.83;;;;;;;-9.17;64.76;102057.05;1676587;85;25433;-47
2024/01/10 00:09:32;;;;;;;75.55;46.25;;;;;;;-9.21;64.79;102062.56;1676526;85;25981;-47
2024/01/10 00:11:59;;;;;;;100.65;90.22;;;;;;;-9.27;64.98;102058.34;1676575;85;25416;-47
2024/01/10 00:14:25;;;;;;;87.95;65.37;;;;;;;-9.26;65.06;102060.83;1676574;85;27318;-47
2024/01/10 00:16:52;;;;;;;105.22;93.60;;;;;;;-9.30;65.32;102066.47;1676463;85;25389;-48
2024/01/10 00:19:18;;;;;;;92.92;76.37;;;;;;;-9.34;65.39;102059.36;1676560;85;25453;-47
2024/01/10 00:21:45;;;;;;;72.90;27.75;;;;;;;-9.34;65.49;102067.71;1676509;85;25905;-47
2024/01/10 00:24:11;;;;;;;46.95;25.95;;;;;;;-9.37;65.46;102074.52;1676529;85;25475;-48
2024/01/10 00:26:38;;;;;;;53.45;20.62;;;;;;;-9.43;65.57;102071.94;1676673;85;27319;-47
2024/01/10 00:29:04;;;;;;;54.85;20.97;;;;;;;-9.44;65.54;102067.67;1676486;85;25448;-47
2024/01/10 00:31:31;;;;;;;45.63;18.02;;;;;;;-9.44;65.28;102070.30;1676575;85;25488;-47
2024/01/10 00:33:58;;;;;;;56.08;23.00;;;;;;;-9.47;65.25;102064.83;1676528;85;25906;-48
2024/01/10 00:36:24;;;;;;;65.52;23.45;;;;;;;-9.47;65.39;102069.25;1676602;85;25487;-48
2024/01/10 00:38:50;;;;;;;59.05;23.12;;;;;;;-9.47;65.49;102071.87;1676437;85;28062;-47
2024/01/10 00:41:17;;;;;;;59.93;24.95;;;;;;;-9.50;65.28;102070.36;1676488;85;25438;-48
2024/01/10 00:43:43;;;;;;;62.83;22.98;;;;;;;-9.51;65.17;102065.25;1676580;85;25493;-51
2024/01/10 00:46:10;;;;;;;65.95;25.40;;;;;;;-9.55;65.06;102067.77;1676519;85;26440;-48
2024/01/10 00:48:36;;;;;;;64.47;25.32;;;;;;;-9.57;65.22;102067.89;1676592;85;25398;-47
2024/01/10 00:51:08;;;;;;;68.25;23.67;;;;;;;-9.58;65.44;102068.39;1676451;85;27379;-46
2024/01/10 00:53:32;;;;;;;42.55;16.37;;;;;;;-9.56;65.77;102061.70;1675869;85;25530;-49
2024/01/10 00:55:58;;;;;;;59.08;22.13;;;;;;;-9.57;65.10;102057.42;1676588;85;25433;-46
2024/01/10 00:58:24;;;;;;;62.67;23.90;;;;;;;-9.54;65.13;102058.47;1676533;85;25982;-47
2024/01/10 01:00:51;;;;;;;60.10;23.35;;;;;;;-9.58;65.53;102055.78;1676572;85;25412;-47
2024/01/10 01:03:17;;;;;;;64.82;24.63;;;;;;;-9.57;65.82;102049.55;1676561;85;27397;-48
2024/01/10 01:05:44;;;;;;;63.75;24.00;;;;;;;-9.52;65.60;102050.48;1676484;85;25396;-47
2024/01/10 01:08:11;;;;;;;56.53;21.82;;;;;;;-9.51;65.97;102048.22;1676582;85;25511;-47
2024/01/10 01:10:37;;;;;;;56.58;23.30;;;;;;;-9.51;65.93;102045.11;1676537;85;25983;-48
2024/01/10 01:13:04;;;;;;;54.95;22.73;;;;;;;-9.47;66.17;102041.73;1676614;85;25387;-49
2024/01/10 01:15:30;;;;;;;66.82;23.05;;;;;;;-9.48;66.36;102042.69;1676708;85;27366;-48
2024/01/10 01:17:57;;;;;;;59.75;25.35;;;;;;;-9.46;66.17;102035.05;1676605;85;25392;-47
2024/01/10 01:20:23;;;;;;;66.60;25.45;;;;;;;-9.53;65.96;102035.24;1676709;85;25500;-47
2024/01/10 01:22:50;;;;;;;72.95;26.42;;;;;;;-9.58;66.58;102038.25;1676639;85;25967;-47
2024/01/10 01:25:17;;;;;;;68.72;26.07;;;;;;;-9.58;66.99;102033.02;1676725;85;25433;-47
2024/01/10 01:27:43;;;;;;;80.28;28.00;;;;;;;-9.61;67.27;102029.35;1676710;85;27331;-46
2024/01/10 01:30:11;;;;;;;76.90;27.58;;;;;;;-9.59;67.36;102021.36;1676601;85;25524;-46
2024/01/10 01:32:38;;;;;;;77.47;27.13;;;;;;;-9.59;67.54;102022.67;1676711;85;25468;-48
2024/01/10 01:35:05;;;;;;;70.42;26.57;;;;;;;-9.58;67.63;102024.34;1676663;85;25961;-47
2024/01/10 01:37:32;;;;;;;73.28;26.55;;;;;;;-9.59;67.52;102020.87;1676711;85;25395;-47
2024/01/10 01:39:58;;;;;;;68.25;23.98;;;;;;;-9.57;67.81;102014.19;1676613;85;27329;-46
2024/01/10 01:42:25;;;;;;;61.90;23.22;;;;;;;-9.59;67.69;102024.80;1676571;85;25399;-47
2024/01/10 01:44:51;;;;;;;65.78;24.00;;;;;;;-9.57;68.17;102018.12;1676699;85;25456;-48
2024/01/10 01:47:18;;;;;;;53.55;21.85;;;;;;;-9.56;68.12;102017.66;1676635;85;26551;-47
2024/01/10 01:49:45;;;;;;;68.62;24.07;;;;;;;-9.58;67.87;102009.93;1676707;85;25386;-48
2024/01/10 01:52:12;;;;;;;60.10;23.22;;;;;;;-9.58;67.88;102012.55;1676684;85;27319;-46
2024/01/10 01:54:38;;;;;;;60.33;23.32;;;;;;;-9.60;67.77;102006.63;1676596;85;25412;-46
2024/01/10 01:57:05;;;;;;;68.02;22.52;;;;;;;-9.61;67.71;102009.70;1676686;85;25461;-46
2024/01/10 01:59:32;;;;;;;52.55;20.65;;;;;;;-9.64;67.61;102008.66;1676637;85;25877;-47
2024/01/10 02:02:01;;;;;;;69.25;26.37;;;;;;;-9.69;67.47;102004.30;1676687;85;25402;-49
2024/01/10 02:04:28;;;;;;;71.90;24.65;;;;;;;-9.76;67.70;102000.07;1676777;85;28086;-48
2024/01/10 02:06:55;;;;;;;74.50;26.87;;;;;;;-9.85;67.78;102001.38;1676569;85;25496;-47
2024/01/10 02:09:21;;;;;;;69.00;23.45;;;;;;;-9.87;68.15;102014.59;1676702;85;25489;-48
2024/01/10 02:11:49;;;;;;;64.07;22.70;;;;;;;-9.90;68.05;102013.55;1676645;85;25976;-47
2024/01/10 02:14:16;;;;;;;64.42;22.42;;;;;;;-9.98;67.97;102020.73;1676683;85;25395;-47
2024/01/10 02:16:43;;;;;;;58.78;21.52;;;;;;;-10.02;68.26;102013.30;1676653;85;27377;-46
2024/01/10 02:19:23;;;;;;;63.02;25.72;;;;;;;-10.01;68.50;102010.55;1676620;85;25395;-47
2024/01/10 02:21:50;;;;;;;82.53;69.58;;;;;;;-10.04;68.32;102010.80;1676673;85;25471;-47
2024/01/10 02:24:17;;;;;;;97.60;83.80;;;;;;;-10.07;68.36;102014.98;1676628;85;26421;-46
2024/01/10 02:26:43;;;;;;;105.40;94.32;;;;;;;-10.10;68.92;102008.70;1676684;85;25388;-47
2024/01/10 02:29:10;;;;;;;100.65;89.62;;;;;;;-10.07;68.61;101999.28;1676669;85;28137;-46
2024/01/10 02:31:36;;;;;;;102.10;91.95;;;;;;;-10.06;68.86;101999.64;1676574;85;25578;-47
2024/01/10 02:34:03;;;;;;;101.47;91.25;;;;;;;-10.07;68.91;101995.84;1676660;85;25425;-47
2024/01/10 02:36:29;;;;;;;102.25;91.78;;;;;;;-10.05;68.91;101998.66;1676621;85;25914;-47
2024/01/10 02:38:56;;;;;;;106.17;95.20;;;;;;;-10.06;68.53;101997.02;1655552;85;25495;-47
2024/01/10 02:41:23;;;;;;;96.47;86.67;;;;;;;-10.07;68.18;101998.46;1676545;85;27337;-47
2024/01/10 02:43:49;;;;;;;95.20;86.15;;;;;;;-10.14;68.63;101978.03;1676553;85;25698;-47
2024/01/10 02:46:16;;;;;;;68.50;62.37;;;;;;;-10.15;69.05;101972.92;1676634;85;25412;-47
2024/01/10 02:48:42;;;;;;;95.77;87.13;;;;;;;-10.17;69.40;101974.85;1676603;85;26002;-47
2024/01/10 02:51:09;;;;;;;99.85;89.75;;;;;;;-10.21;69.38;101970.36;1676663;85;25447;-47
2024/01/10 02:53:35;;;;;;;94.77;85.15;;;;;;;-10.22;69.40;101967.39;1676618;85;27576;-47
2024/01/10 02:56:02;;;;;;;92.10;83.60;;;;;;;-10.23;69.45;101962.28;1676551;85;25406;-46
2024/01/10 02:58:29;;;;;;;43.83;39.70;;;;;;;-10.24;69.64;101965.39;1676624;85;25394;-47
2024/01/10 03:00:57;;;;;;;65.20;49.73;;;;;;;-10.23;70.04;101958.35;1676584;85;26179;-48
2024/01/10 03:03:24;;;;;;;48.35;37.60;;;;;;;-10.23;70.50;101936.96;1676762;85;25474;-48
2024/01/10 03:05:50;;;;;;;37.60;34.80;;;;;;;-10.20;70.13;101951.55;1676620;85;27317;-47
2024/01/10 03:08:17;;;;;;;111.17;102.40;;;;;;;-10.24;70.42;101937.91;1676539;85;25441;-48
2024/01/10 03:10:44;;;;;;;73.90;66.53;;;;;;;-10.22;70.75;101942.52;1676639;85;25388;-47
2024/01/10 03:13:10;;;;;;;41.97;38.53;;;;;;;-10.16;71.36;101946.42;1676578;85;25981;-48
2024/01/10 03:15:37;;;;;;;100.50;90.62;;;;;;;-10.15;71.54;101917.50;1676640;85;25408;-48
2024/01/10 03:18:04;;;;;;;131.22;119.67;;;;;;;-10.09;71.64;101951.47;1676597;85;27386;-47
2024/01/10 03:20:30;;;;;;;106.87;95.90;;;;;;;-10.07;71.52;101948.72;1676520;85;25472;-47
2024/01/10 03:22:57;;;;;;;97.97;59.45;;;;;;;-10.06;71.47;101945.13;1676585;85;25455;-47
2024/01/10 03:25:23;;;;;;;86.67;43.60;;;;;;;-10.03;71.88;101947.48;1676564;85;26448;-48
2024/01/10 03:27:50;;;;;;;63.13;24.32;;;;;;;-9.99;71.91;101949.71;1676644;85;25470;-47
2024/01/10 03:30:18;;;;;;;74.40;25.52;;;;;;;-9.97;72.09;101946.47;1676602;85;27383;-48
2024/01/10 03:32:44;;;;;;;66.72;26.50;;;;;;;-9.91;72.36;101949.03;1676519;85;25474;-48
2024/01/10 03:35:11;;;;;;;75.03;29.82;;;;;;;-9.90;72.20;101948.57;1676613;85;25496;-47
2024/01/10 03:37:38;;;;;;;110.40;98.27;;;;;;;-9.91;71.94;101939.87;1676540;85;26641;-47
2024/01/10 03:40:05;;;;;;;100.38;89.92;;;;;;;-9.90;71.94;101943.33;1676551;85;25841;-49
2024/01/10 03:42:31;;;;;;;108.95;96.35;;;;;;;-9.90;72.34;101940.72;1676598;85;27308;-46
2024/01/10 03:44:58;;;;;;;88.62;79.53;;;;;;;-9.89;72.40;101942.36;1676505;85;25656;-48
2024/01/10 03:47:25;;;;;;;116.37;104.75;;;;;;;-9.86;72.49;101945.53;1676596;85;25404;-47
2024/01/10 03:49:51;;;;;;;111.50;99.55;;;;;;;-9.81;72.70;101947.75;1676552;85;25911;-47
2024/01/10 03:52:19;;;;;;;107.50;96.80;;;;;;;-9.78;72.94;101943.07;1676613;85;25457;-47
2024/01/10 03:54:45;;;;;;;103.40;92.75;;;;;;;-9.77;73.19;101936.88;1676577;85;27307;-47
2024/01/10 03:57:12;;;;;;;103.67;92.90;;;;;;;-9.70;73.20;101937.63;1676494;85;25707;-47
2024/01/10 03:59:38;;;;;;;101.82;91.45;;;;;;;-9.67;72.95;101927.74;1676587;85;25483;-47
2024/01/10 04:02:05;;;;;;;45.53;40.87;;;;;;;-9.65;72.57;101918.41;1676521;85;25915;-47
2024/01/10 04:04:32;;;;;;;66.33;24.10;;;;;;;-9.66;72.62;101925.45;1676607;85;25421;-47
2024/01/10 04:06:58;;;;;;;62.80;27.10;;;;;;;-9.61;72.63;101929.80;1676586;85;27885;-47
2024/01/10 04:09:25;;;;;;;111.72;86.57;;;;;;;-9.59;73.16;101929.67;1676496;85;25488;-47
2024/01/10 04:11:51;;;;;;;126.27;114.28;;;;;;;-9.60;72.98;101920.98;1676586;85;25391;-48
2024/01/10 04:14:18;;;;;;;100.53;72.25;;;;;;;-9.58;73.20;101924.78;1676619;85;25999;-47
2024/01/10 04:16:44;;;;;;;72.65;39.83;;;;;;;-9.56;73.12;101910.24;1676601;85;25467;-47
2024/01/10 04:19:11;;;;;;;80.97;41.85;;;;;;;-9.56;73.14;101912.38;1676582;85;28131;-47
2024/01/10 04:21:38;;;;;;;72.37;32.45;;;;;;;-9.54;73.23;101903.89;1676468;85;25829;-47
2024/01/10 04:24:04;;;;;;;75.97;39.48;;;;;;;-9.54;73.27;101901.76;1676579;85;25404;-47
2024/01/10 04:26:32;;;;;;;67.17;27.40;;;;;;;-9.55;73.03;101898.31;1676540;85;25931;-47
2024/01/10 04:28:58;;;;;;;82.93;40.63;;;;;;;-9.55;72.72;101894.85;1676600;85;25465;-48
2024/01/10 04:31:25;;;;;;;88.65;49.40;;;;;;;-9.58;72.77;101890.73;1676561;85;27380;-47
2024/01/10 04:33:52;;;;;;;77.82;30.57;;;;;;;-9.60;72.59;101893.97;1676521;85;25459;-47
2024/01/10 04:36:19;;;;;;;100.05;79.70;;;;;;;-9.59;72.65;101894.30;1676585;85;25392;-47
2024/01/10 04:38:45;;;;;;;65.97;29.10;;;;;;;-9.60;73.09;101888.24;1676651;85;26691;-48
2024/01/10 04:41:12;;;;;;;105.12;90.22;;;;;;;-9.61;73.16;101898.36;1676928;85;25431;-47
2024/01/10 04:43:38;;;;;;;107.27;68.35;;;;;;;-9.58;73.16;101897.28;1677261;85;28047;-47
2024/01/10 04:46:05;;;;;;;86.08;68.75;;;;;;;-9.58;73.37;101894.66;1677226;85;25415;-46
2024/01/10 04:48:32;;;;;;;81.35;36.88;;;;;;;-9.56;73.55;101903.20;1677365;85;25475;-46
2024/01/10 04:50:58;;;;;;;106.78;95.10;;;;;;;-9.53;73.80;101904.70;1677380;85;25907;-47
2024/01/10 04:53:25;;;;;;;106.58;95.22;;;;;;;-9.52;73.86;101905.06;1677233;85;25476;-47
2024/01/10 04:55:51;;;;;;;108.93;98.53;;;;;;;-9.51;73.98;101905.42;1684183;85;27541;-47
2024/01/10 04:58:18;;;;;;;125.62;103.27;;;;;;;-9.50;73.90;101905.75;1677022;84;25704;-47
2024/01/10 05:00:45;;;;;;;108.57;93.67;;;;;;;-9.49;73.53;101909.55;1676961;85;25458;-46
2024/01/10 05:03:11;;;;;;;108.57;89.00;;;;;;;-9.48;73.84;101905.97;1676891;85;25914;-47
2024/01/10 05:05:38;;;;;;;103.07;91.95;;;;;;;-9.50;73.72;101907.91;1676989;85;25445;-47
2024/01/10 05:08:06;;;;;;;63.53;57.10;;;;;;;-9.51;73.59;101910.17;1684083;85;27323;-46
2024/01/10 05:10:33;;;;;;;42.93;39.03;;;;;;;-9.50;73.98;101909.67;1676933;84;25458;-46
2024/01/10 05:12:59;;;;;;;78.40;71.07;;;;;;;-9.51;73.84;101908.04;1676951;85;25445;-47
2024/01/10 05:15:26;;;;;;;70.87;64.00;;;;;;;-9.52;73.80;101911.12;1684081;84;25915;-47
2024/01/10 05:17:52;;;;;;;20.20;18.67;;;;;;;-9.52;73.85;101912.43;1677181;84;25401;-47
2024/01/10 05:20:19;;;;;;;79.37;70.77;;;;;;;-9.52;73.97;101922.09;1684217;84;27334;-47
2024/01/10 05:22:45;;;;;;;70.90;63.53;;;;;;;-9.53;73.90;101917.34;1678224;84;25490;-47
2024/01/10 05:25:12;;;;;;;72.77;66.40;;;;;;;-9.53;74.12;101916.49;1676959;85;25444;-46
2024/01/10 05:27:39;;;;;;;100.00;89.30;;;;;;;-9.54;74.29;101913.05;1676890;85;25874;-47
2024/01/10 05:30:07;;;;;;;106.87;92.27;;;;;;;-9.54;74.61;101911.75;1676957;85;25413;-46
2024/01/10 05:32:34;;;;;;;54.00;19.93;;;;;;;-9.51;74.46;101917.21;1677171;85;28066;-46
2024/01/10 05:35:00;;;;;;;70.72;27.65;;;;;;;-9.53;74.53;101922.58;1683978;84;25465;-46
2024/01/10 05:37:27;;;;;;;67.80;24.98;;;;;;;-9.53;74.73;101929.14;1677112;84;25505;-46
2024/01/10 05:39:53;;;;;;;76.70;28.17;;;;;;;-9.54;74.58;101927.95;1676906;85;25907;-46
2024/01/10 05:42:20;;;;;;;71.02;25.43;;;;;;;-9.58;74.72;101928.72;1694677;83;25427;-46
2024/01/10 05:44:47;;;;;;;109.45;92.70;;;;;;;-9.58;74.87;101919.05;1701757;84;27302;-47
2024/01/10 05:47:14;;;;;;;95.00;71.45;;;;;;;-9.60;74.97;101922.30;1696618;84;25449;-47
2024/01/10 05:49:42;;;;;;;114.42;99.35;;;;;;;-9.60;75.03;101924.09;1687261;84;25494;-48
2024/01/10 05:52:09;;;;;;;100.45;88.15;;;;;;;-9.59;75.28;101928.36;1687237;85;26075;-47
2024/01/10 05:54:35;;;;;;;111.88;96.57;;;;;;;-9.59;75.22;101920.01;1687292;85;25419;-46
2024/01/10 05:57:02;;;;;;;69.33;59.13;;;;;;;-9.60;75.34;101905.77;1687240;85;27328;-47
2024/01/10 05:59:30;;;;;;;26.10;23.33;;;;;;;-9.61;75.42;101885.27;1687262;85;25450;-47
2024/01/10 06:01:58;;;;;;;37.33;34.13;;;;;;;-9.61;75.49;101894.44;1687497;85;25412;-48
2024/01/10 06:04:25;;;;;;;26.42;23.75;;;;;;;-9.62;75.47;101874.92;1687432;85;26151;-49
2024/01/10 06:06:52;;;;;;;25.30;23.10;;;;;;;-9.65;75.71;101876.04;1687335;85;25404;-48
2024/01/10 06:09:21;;;;;;;78.73;42.80;;;;;;;-9.59;75.54;101891.68;1687263;85;27337;-48
2024/01/10 06:11:46;;;;;;;94.50;59.27;;;;;;;-9.55;75.91;101885.68;1687228;83;25726;-48
2024/01/10 06:14:13;;;;;;;96.60;81.05;;;;;;;-9.58;76.01;101881.06;1686870;85;25844;-47
2024/01/10 06:16:40;;;;;;;93.15;63.58;;;;;;;-9.58;75.61;101886.31;1687083;85;25973;-46
2024/01/10 06:19:06;;;;;;;104.50;90.00;;;;;;;-9.60;75.75;101889.55;1687267;85;25378;-49
2024/01/10 06:21:33;;;;;;;114.13;101.93;;;;;;;-9.62;75.79;101888.87;1687229;85;27582;-46
2024/01/10 06:24:00;;;;;;;88.43;79.07;;;;;;;-9.64;75.68;101885.53;1692082;84;25405;-47
2024/01/10 06:26:26;;;;;;;98.23;88.50;;;;;;;-9.63;75.73;101891.63;1692218;84;25411;-48
2024/01/10 06:28:53;;;;;;;103.30;92.13;;;;;;;-9.62;75.79;101896.73;1692158;84;26081;-48
2024/01/10 06:31:20;;;;;;;132.13;120.00;;;;;;;-9.59;75.93;101899.05;1692221;84;25517;-47
2024/01/10 06:33:47;;;;;;;96.87;88.33;;;;;;;-9.55;75.97;101906.64;1687216;84;27394;-46
2024/01/10 06:36:14;;;;;;;52.73;47.70;;;;;;;-9.53;75.88;101906.86;1687130;85;25461;-48
2024/01/10 06:38:40;;;;;;;118.35;104.03;;;;;;;-9.53;75.92;101899.47;1687232;85;25473;-47
2024/01/10 06:41:11;;;;;;;101.07;88.47;;;;;;;-9.49;75.91;101913.47;1685658;84;26660;-47
2024/01/10 06:43:38;;;;;;;40.23;29.10;;;;;;;-9.47;75.81;101913.34;1687612;85;25479;-49
2024/01/10 06:46:05;;;;;;;24.23;22.27;;;;;;;-11.04;75.90;101483.86;1683341;85;28000;-48
2024/01/10 06:48:32;;;;;;;33.80;24.13;;;;;;;-9.48;75.77;101910.36;1676554;85;25441;-48
2024/01/10 06:50:59;;;;;;;17.40;16.03;;;;;;;-9.46;75.91;101898.80;1676628;85;25473;-47
2024/01/10 06:53:25;;;;;;;18.27;17.10;;;;;;;-9.46;75.94;101906.66;1676587;85;26444;-46
2024/01/10 06:55:52;;;;;;;17.93;16.80;;;;;;;-11.34;76.34;101422.94;1676647;85;25475;-48
2024/01/10 06:58:19;;;;;;;15.27;14.37;;;;;;;-9.39;76.20;101902.52;1676623;85;27328;-48
2024/01/10 07:00:45;;;;;;;25.07;22.83;;;;;;;-9.37;76.30;101904.17;1676539;85;25464;-47
2024/01/10 07:03:12;;;;;;;18.40;16.33;;;;;;;-9.33;76.46;101914.25;1676606;85;25456;-48
2024/01/10 07:05:38;;;;;;;76.80;66.90;;;;;;;-9.52;77.03;101832.52;1676586;85;26004;-49
2024/01/10 07:08:05;;;;;;;30.10;27.43;;;;;;;-9.29;77.43;101914.80;1676626;85;25389;-45
2024/01/10 07:10:32;;;;;;;10.67;10.07;;;;;;;-9.27;77.18;101922.86;1676597;85;28008;-47
2024/01/10 07:12:58;;;;;;;10.73;10.10;;;;;;;-10.00;77.55;101686.74;1676544;85;25483;-47
2024/01/10 07:15:25;;;;;;;27.80;21.47;;;;;;;-9.13;77.71;101904.56;1676634;85;25468;-48
2024/01/10 07:17:51;;;;;;;26.20;23.43;;;;;;;;;;1676583;85;25880;-47
2024/01/10 07:20:18;;;;;;;36.43;24.53;;;;;;;;;;1676638;85;25449;-47
2024/01/10 07:22:44;;;;;;;10.63;10.13;;;;;;;;;;1676572;85;27401;-47
2024/01/10 07:25:17;;;;;;;72.13;65.87;;;;;;;;;;1676556;85;25468;-46
2024/01/10 07:27:43;;;;;;;31.80;28.77;;;;;;;;;;1676616;85;25451;-48
2024/01/10 07:30:13;;;;;;;101.47;86.00;;;;;;;;;;1676583;85;25937;-47
2024/01/10 07:32:46;;;;;;;91.30;82.93;;;;;;;;;;1676629;85;25479;-46
2024/01/10 07:35:13;;;;;;;12.33;11.20;;;;;;;;;;1676619;85;28078;-47
2024/01/10 07:37:41;;;;;;;48.08;44.35;;;;;;;;;;1676659;85;25427;-47
2024/01/10 07:40:13;;;;;;;22.20;17.77;;;;;;;;;;1676851;85;25393;-47
2024/01/10 07:42:36;;;;;;;18.57;14.93;;;;;;;;;;1676510;85;26020;-49
2024/01/10 07:45:08;;;;;;;17.40;16.07;;;;;;;;;;1677115;85;25430;-48
2024/01/10 07:47:37;;;;;;;28.00;25.27;;;;;;;;;;1676138;85;27335;-48
2024/01/10 07:50:01;;;;;;;48.50;43.97;;;;;;;;;;1682700;85;25495;-51
2024/01/10 07:52:27;;;;;;;19.60;18.07;;;;;;;;;;1678151;84;25090;-49
2024/01/10 07:54:54;;;;;;;11.90;10.80;;;;;;;;;;1684008;85;26050;-47
2024/01/10 07:57:20;;;;;;;40.80;29.57;;;;;;;;;;1683997;85;25475;-48
2024/01/10 07:59:47;;;;;;;13.80;12.10;;;;;;;;;;1651123;86;27302;-48
2024/01/10 08:02:13;;;;;;;14.13;12.90;;;;;;;;;;1689134;84;25454;-50
2024/01/10 08:04:39;;;;;;;12.90;12.07;;;;;;;;;;1689234;83;25504;-47
2024/01/10 08:07:05;;;;;;;12.30;11.60;;;;;;;;;;1688736;84;25940;-46
2024/01/10 08:09:31;;;;;;;15.80;14.77;;;;;;;;;;1683984;85;25490;-48
2024/01/10 08:11:58;;;;;;;9.67;9.27;;;;;;;;;;1650305;86;27347;-47
2024/01/10 08:14:24;;;;;;;10.23;9.73;;;;;;;;;;1688061;84;25533;-48
2024/01/10 08:16:53;;;;;;;44.27;17.17;;;;;;;;;;1653430;86;25497;-47
2024/01/10 08:19:18;;;;;;;24.43;21.73;;;;;;;;;;1689567;84;25924;-47
2024/01/10 08:21:45;;;;;;;59.93;26.30;;;;;;;;;;1689198;84;25440;-48
2024/01/10 08:24:11;;;;;;;18.93;17.30;;;;;;;;;;1687048;84;27409;-48
2024/01/10 08:26:37;;;;;;;39.37;35.70;;;;;;;;;;1683890;85;25664;-49
2024/01/10 08:29:04;;;;;;;62.62;35.00;;;;;;;;;;1684061;85;25448;-48
2024/01/10 08:31:30;;;;;;;117.75;95.05;;;;;;;;;;1684007;85;25937;-47
2024/01/10 08:33:56;;;;;;;127.67;98.03;;;;;;;;;;1652199;86;25430;-47
2024/01/10 08:36:24;;;;;;;119.60;99.52;;;;;;;;;;1651395;85;27340;-47
2024/01/10 08:38:51;;;;;;;111.85;82.50;;;;;;;;;;1683919;85;25409;-49
2024/01/10 08:41:19;;;;;;;105.75;82.25;;;;;;;;;;1677171;84;25431;-47
2024/01/10 08:43:47;;;;;;;110.08;97.50;;;;;;;;;;1677171;84;25916;-50
2024/01/10 08:46:14;;;;;;;79.55;29.07;;;;;;;;;;1676130;84;25414;-47
2024/01/10 08:48:40;;;;;;;81.57;34.43;;;;;;;;;;1676583;85;28105;-47
2024/01/10 08:51:06;;;;;;;121.10;105.12;;;;;;;;;;1676513;85;25452;-48
2024/01/10 08:53:33;;;;;;;124.95;109.65;;;;;;;;;;1676685;85;25485;-48
2024/01/10 08:55:59;;;;;;;79.75;41.40;;;;;;;;;;1676575;85;26088;-47
2024/01/10 08:58:25;;;;;;;87.82;32.05;;;;;;;;;;1676625;85;25478;-48
2024/01/10 09:00:52;;;;;;;82.15;30.12;;;;;;;;;;1676569;85;28171;-49
2024/01/10 09:03:18;;;;;;;81.42;40.73;;;;;;;;;;1676505;85;25409;-47
2024/01/10 09:05:44;;;;;;;104.95;76.15;;;;;;;;;;1676598;85;25460;-47
2024/01/10 09:08:11;;;;;;;74.80;36.50;;;;;;;;;;1676589;85;26578;-49
2024/01/10 09:10:38;;;;;;;90.57;59.98;;;;;;;;;;1676618;85;25435;-47
2024/01/10 09:13:04;;;;;;;91.22;50.25;;;;;;;;;;1676574;85;27464;-46
2024/01/10 09:15:31;;;;;;;91.40;32.50;;;;;;;;;;1676515;85;25724;-48
2024/01/10 09:17:57;;;;;;;78.25;32.13;;;;;;;;;;1676616;85;25480;-46
2024/01/10 09:20:23;;;;;;;82.90;33.58;;;;;;;;;;1676615;85;25874;-46
2024/01/10 09:22:50;;;;;;;110.90;96.67;;;;;;;;;;1676578;85;25436;-47
2024/01/10 09:25:17;;;;;;;119.77;99.57;;;;;;;;;;1676579;85;28097;-47
2024/01/10 09:27:44;;;;;;;84.75;46.35;;;;;;;;;;1676481;85;25420;-50
2024/01/10 09:30:12;;;;;;;107.58;96.22;;;;;;;;;;1676576;85;25404;-49
2024/01/10 09:32:38;;;;;;;107.80;94.32;;;;;;;;;;1676519;85;26511;-49
2024/01/10 09:35:04;;;;;;;114.60;95.70;;;;;;;;;;1676656;84;25425;-48
2024/01/10 09:37:31;;;;;;;93.50;75.22;;;;;;;;;;1676685;85;27555;-48
2024/01/10 09:39:57;;;;;;;109.80;86.90;;;;;;;;;;1676603;85;25571;-47
2024/01/10 09:42:26;;;;;;;88.93;73.03;;;;;;;;;;1678030;84;25401;-48
2024/01/10 09:44:52;;;;;;;115.77;96.92;;;;;;;;;;1677008;85;26009;-48
2024/01/10 09:47:20;;;;;;;76.60;68.40;;;;;;;;;;1676967;85;25480;-48
2024/01/10 09:49:47;;;;;;;122.17;85.27;;;;;;;;;;1684164;85;27271;-50
2024/01/10 09:52:27;;;;;;;129.97;96.43;;;;;;;;;;1683949;85;25679;-47
2024/01/10 09:54:56;;;;;;;117.87;99.37;;;;;;;;;;1675860;85;25501;-47
2024/01/10 09:57:25;;;;;;;80.67;71.75;;;;;;;;;;1677129;84;26190;-48
2024/01/10 09:59:52;;;;;;;109.20;91.97;;;;;;;;;;1677041;84;25487;-48
2024/01/10 10:02:22;;;;;;;75.22;29.57;;;;;;;;;;1676917;84;27439;-47
2024/01/10 10:05:08;;;;;;;70.95;30.23;;;;;;;;;;1676700;85;25413;-47
2024/01/10 10:07:47;;;;;;;75.92;31.52;;;;;;;;;;1676914;85;25468;-48
2024/01/10 10:10:15;;;;;;;75.42;39.67;;;;;;;;;;1676320;85;26038;-49
2024/01/10 10:12:48;;;;;;;77.25;43.90;;;;;;;;;;1676921;85;25499;-47
2024/01/10 10:15:16;;;;;;;73.22;29.98;;;;;;;;;;1676092;84;27438;-50
2024/01/10 10:17:47;;;;;;;74.15;31.07;;;;;;;;;;1677077;84;25589;-49
2024/01/10 10:20:24;;;;;;;69.17;31.77;;;;;;;;;;1677133;84;25429;-48
2024/01/10 10:23:06;;;;;;;76.62;31.05;;;;;;;;;;1676863;85;26629;-48
2024/01/10 10:27:17;;;;;;;91.63;34.45;;;;;;;2.78;61.66;101913.14;1887116;76;34633;-48
2024/01/10 10:29:40;;;;;;;108.85;51.68;;;;;;;2.94;61.00;101907.23;1786249;80;25380;-50
2024/01/10 10:32:08;;;;;;;97.92;43.83;;;;;;;3.16;60.44;101902.31;1820437;78;28567;-48
2024/01/10 10:34:36;;;;;;;77.85;40.20;;;;;;;3.33;59.76;101909.79;1788048;80;25472;-48
2024/01/10 10:37:04;;;;;;;85.07;41.90;;;;;;;3.48;58.50;101907.58;1788101;80;25324;-49
2024/01/10 10:39:31;;;;;;;79.82;35.55;;;;;;;3.89;59.07;101898.59;1788044;80;25615;-51
2024/01/10 10:41:59;;;;;;;80.72;37.40;;;;;;;4.45;58.82;101889.38;1788140;80;25547;-49
2024/01/10 10:44:29;;;;;;;85.72;38.50;;;;;;;4.91;57.61;101879.52;1757348;80;27820;-48
2024/01/10 10:47:00;;;;;;;82.50;36.20;;;;;;;5.13;56.56;101873.86;1787962;80;25535;-48
2024/01/10 10:49:31;;;;;;;80.60;37.65;;;;;;;5.45;55.77;101876.18;1788115;80;25608;-49
2024/01/10 10:52:00;;;;;;;83.70;38.65;;;;;;;5.76;54.44;101872.78;1788061;80;26347;-51
2024/01/10 10:54:30;;;;;;;89.60;39.83;;;;;;;5.97;53.57;101872.14;1788248;80;25474;-49
2024/01/10 10:57:02;;;;;;;88.05;40.43;;;;;;;6.35;53.18;101864.50;1788189;80;28756;-50
2024/01/10 10:59:32;;;;;;;83.85;40.03;;;;;;;6.62;52.22;101856.63;1788015;80;25389;-49
2024/01/10 11:01:58;;;;;;;98.35;41.73;;;;;;;6.83;51.51;101863.71;1787692;80;25415;-51
2024/01/10 11:04:26;;;;;;;93.15;42.05;;;;;;;7.07;50.94;101859.77;1788040;80;25602;-50
2024/01/10 11:06:53;;;;;;;84.32;41.85;;;;;;;7.34;50.35;101850.99;1788038;80;25480;-52
2024/01/10 11:09:23;;;;;;;91.25;39.58;;;;;;;7.44;49.83;101857.02;1788074;80;27831;-50
2024/01/10 11:12:23;;;;;;;86.95;40.38;;;;;;;7.67;49.82;101857.32;1787978;80;26007;-50
2024/01/10 11:15:20;;;;;;;91.40;42.48;;;;;;;7.88;49.41;101850.82;1787367;80;25389;-50
2024/01/10 11:18:01;;;;;;;82.72;40.48;;;;;;;7.82;47.91;101840.53;1784659;80;26207;-51
2024/01/10 11:20:36;;;;;;;92.53;40.52;;;;;;;7.83;47.65;101843.48;1787805;80;25581;-50
2024/01/10 11:23:33;;;;;;;86.85;40.17;;;;;;;7.89;47.20;101853.81;1788090;80;28300;-50
2024/01/10 11:26:00;;;;;;;80.55;40.55;;;;;;;7.84;47.50;101847.28;1773381;80;25560;-51
2024/01/10 11:28:31;;;;;;;171.13;83.80;;;;;;;7.90;46.70;101837.91;1788101;80;25413;-49
2024/01/10 11:30:57;;;;;;;83.10;40.38;;;;;;;7.64;46.42;101831.72;1786727;80;25587;-50
2024/01/10 11:33:33;;;;;;;87.25;40.52;;;;;;;7.40;46.09;101832.48;1788083;80;25572;-49
2024/01/10 11:36:14;;;;;;;88.00;39.35;;;;;;;7.33;46.31;101836.43;1788073;80;28398;-50
2024/01/10 11:38:56;;;;;;;75.30;37.50;;;;;;;7.21;46.07;101828.47;1787436;80;25404;-50
2024/01/10 11:41:36;;;;;;;80.28;37.28;;;;;;;7.04;45.90;101820.43;1787521;80;25641;-48
2024/01/10 11:44:18;;;;;;;81.10;37.53;;;;;;;6.85;45.91;101818.55;1787508;80;25398;-50
2024/01/10 11:46:49;;;;;;;82.00;39.95;;;;;;;6.81;46.46;101806.13;1787552;80;25603;-51
2024/01/10 11:49:22;;;;;;;75.72;37.73;;;;;;;6.99;46.82;101819.81;1787541;80;27460;-50
2024/01/10 11:51:53;;;;;;;80.03;35.92;;;;;;;7.03;46.63;101812.90;1756330;81;25405;-49
2024/01/10 11:54:50;;;;;;;74.47;38.53;;;;;;;7.03;46.42;101812.06;1756402;81;25466;-48